sensor_id;sensor_type;location;lat;lon;timestamp;pressure;altitude;pressure_sealevel;temperature;humidity
64632;BME280;58358;50.936;0.246;2022-11-20T00:00:55;100672.41;;;3.18;66.37
64632;BME280;58358;50.936;0.246;2022-11-20T00:03:21;100672.16;;;3.58;65.79
64632;BME280;58358;50.936;0.246;2022-11-20T00:05:46;100673.25;;;3.66;64.49
64632;BME280;58358;50.936;0.246;2022-11-20T00:08:13;100666.81;;;4.51;62.67
64632;BME280;58358;50.936;0.246;2022-11-20T00:10:37;100667.50;;;5.40;60.37
64632;BME280;58358;50.936;0.246;2022-11-20T00:13:02;100670.09;;;3.34;63.62
64632;BME280;58358;50.936;0.246;2022-11-20T00:15:27;100664.30;;;4.97;59.92
64632;BME280;58358;50.936;0.246;2022-11-20T00:17:52;100655.27;;;5.08;60.67
64632;BME280;58358;50.936;0.246;2022-11-20T00:20:17;100656.94;;;3.48;63.99
64632;BME280;58358;50.936;0.246;2022-11-20T00:22:53;100651.18;;;4.66;62.30
64632;BME280;58358;50.936;0.246;2022-11-20T00:25:08;100648.52;;;4.75;61.79
64632;BME280;58358;50.936;0.246;2022-11-20T00:27:33;100645.70;;;5.16;61.22
64632;BME280;58358;50.936;0.246;2022-11-20T00:29:59;100643.15;;;5.54;60.45
64632;BME280;58358;50.936;0.246;2022-11-20T00:32:25;100638.53;;;4.70;61.86
64632;BME280;58358;50.936;0.246;2022-11-20T00:34:50;100630.57;;;4.81;62.15
64632;BME280;58358;50.936;0.246;2022-11-20T00:37:15;100625.65;;;4.93;62.22
64632;BME280;58358;50.936;0.246;2022-11-20T00:39:40;100622.07;;;5.09;61.54
64632;BME280;58358;50.936;0.246;2022-11-20T00:42:05;100618.63;;;4.91;61.58
64632;BME280;58358;50.936;0.246;2022-11-20T00:44:31;100619.42;;;5.33;60.43
64632;BME280;58358;50.936;0.246;2022-11-20T00:46:57;100624.90;;;5.41;60.01
64632;BME280;58358;50.936;0.246;2022-11-20T00:49:22;100625.53;;;5.89;59.37
64632;BME280;58358;50.936;0.246;2022-11-20T00:51:48;100624.98;;;5.90;58.80
64632;BME280;58358;50.936;0.246;2022-11-20T00:54:14;100618.77;;;5.83;59.20
64632;BME280;58358;50.936;0.246;2022-11-20T00:56:40;100617.64;;;5.90;59.19
64632;BME280;58358;50.936;0.246;2022-11-20T00:59:05;100614.78;;;5.92;59.37
64632;BME280;58358;50.936;0.246;2022-11-20T01:01:30;100609.91;;;5.86;59.14
64632;BME280;58358;50.936;0.246;2022-11-20T01:03:57;100606.48;;;5.83;59.13
64632;BME280;58358;50.936;0.246;2022-11-20T01:06:23;100604.35;;;6.25;58.59
64632;BME280;58358;50.936;0.246;2022-11-20T01:08:47;100602.21;;;5.78;58.48
64632;BME280;58358;50.936;0.246;2022-11-20T01:11:16;100598.12;;;6.32;57.66
64632;BME280;58358;50.936;0.246;2022-11-20T01:13:38;100592.05;;;5.85;58.72
64632;BME280;58358;50.936;0.246;2022-11-20T01:16:04;100590.65;;;6.14;58.70
64632;BME280;58358;50.936;0.246;2022-11-20T01:18:28;100590.98;;;4.85;60.11
64632;BME280;58358;50.936;0.246;2022-11-20T01:20:54;100586.96;;;5.36;61.01
64632;BME280;58358;50.936;0.246;2022-11-20T01:23:19;100584.02;;;6.05;58.74
64632;BME280;58358;50.936;0.246;2022-11-20T01:25:44;100579.11;;;6.62;58.10
64632;BME280;58358;50.936;0.246;2022-11-20T01:28:10;100578.96;;;5.63;59.77
64632;BME280;58358;50.936;0.246;2022-11-20T01:30:36;100574.26;;;6.38;58.21
64632;BME280;58358;50.936;0.246;2022-11-20T01:33:01;100568.40;;;7.57;55.70
64632;BME280;58358;50.936;0.246;2022-11-20T01:35:27;100561.60;;;6.64;55.91
64632;BME280;58358;50.936;0.246;2022-11-20T01:37:52;100564.72;;;7.79;55.43
64632;BME280;58358;50.936;0.246;2022-11-20T01:40:18;100560.30;;;6.52;57.95
64632;BME280;58358;50.936;0.246;2022-11-20T01:42:46;100559.05;;;6.70;57.74
64632;BME280;58358;50.936;0.246;2022-11-20T01:47:36;100548.47;;;6.45;58.40
64632;BME280;58358;50.936;0.246;2022-11-20T01:50:04;100544.00;;;6.54;59.07
64632;BME280;58358;50.936;0.246;2022-11-20T01:52:27;100543.54;;;5.95;60.11
64632;BME280;58358;50.936;0.246;2022-11-20T01:54:54;100542.54;;;5.82;60.63
64632;BME280;58358;50.936;0.246;2022-11-20T01:57:16;100541.24;;;6.09;61.04
64632;BME280;58358;50.936;0.246;2022-11-20T01:59:47;100536.78;;;5.89;60.77
64632;BME280;58358;50.936;0.246;2022-11-20T02:02:06;100535.86;;;6.14;61.08
64632;BME280;58358;50.936;0.246;2022-11-20T02:04:32;100528.55;;;6.39;59.52
64632;BME280;58358;50.936;0.246;2022-11-20T02:07:00;100528.53;;;6.60;59.31
64632;BME280;58358;50.936;0.246;2022-11-20T02:09:23;100525.96;;;7.63;58.26
64632;BME280;58358;50.936;0.246;2022-11-20T02:11:49;100525.44;;;6.90;59.11
64632;BME280;58358;50.936;0.246;2022-11-20T02:14:14;100525.14;;;6.66;60.56
64632;BME280;58358;50.936;0.246;2022-11-20T02:16:43;100523.49;;;6.23;61.34
64632;BME280;58358;50.936;0.246;2022-11-20T02:19:09;100518.77;;;7.08;60.37
64632;BME280;58358;50.936;0.246;2022-11-20T02:21:35;100516.49;;;6.85;59.95
64632;BME280;58358;50.936;0.246;2022-11-20T02:24:01;100513.40;;;7.26;58.76
64632;BME280;58358;50.936;0.246;2022-11-20T02:26:23;100508.58;;;7.31;58.85
64632;BME280;58358;50.936;0.246;2022-11-20T02:28:47;100508.08;;;7.40;58.90
64632;BME280;58358;50.936;0.246;2022-11-20T02:31:12;100509.32;;;7.30;59.56
64632;BME280;58358;50.936;0.246;2022-11-20T02:33:38;100502.85;;;6.73;60.55
64632;BME280;58358;50.936;0.246;2022-11-20T02:36:04;100499.66;;;6.91;61.30
64632;BME280;58358;50.936;0.246;2022-11-20T02:38:29;100492.95;;;5.40;63.47
64632;BME280;58358;50.936;0.246;2022-11-20T02:40:54;100488.24;;;6.44;62.79
64632;BME280;58358;50.936;0.246;2022-11-20T02:43:20;100495.95;;;6.50;62.55
64632;BME280;58358;50.936;0.246;2022-11-20T02:45:45;100489.94;;;7.09;61.38
64632;BME280;58358;50.936;0.246;2022-11-20T02:48:10;100481.22;;;7.12;61.44
64632;BME280;58358;50.936;0.246;2022-11-20T02:50:37;100477.30;;;6.40;62.51
64632;BME280;58358;50.936;0.246;2022-11-20T02:53:01;100472.49;;;6.90;62.29
64632;BME280;58358;50.936;0.246;2022-11-20T02:55:26;100464.71;;;6.31;62.80
64632;BME280;58358;50.936;0.246;2022-11-20T02:57:51;100461.68;;;6.47;63.58
64632;BME280;58358;50.936;0.246;2022-11-20T03:00:17;100457.98;;;5.98;65.30
64632;BME280;58358;50.936;0.246;2022-11-20T03:02:42;100458.46;;;6.73;64.13
64632;BME280;58358;50.936;0.246;2022-11-20T03:05:08;100451.51;;;7.10;62.47
64632;BME280;58358;50.936;0.246;2022-11-20T03:07:33;100449.16;;;6.34;63.31
64632;BME280;58358;50.936;0.246;2022-11-20T03:09:58;100447.13;;;5.74;66.04
64632;BME280;58358;50.936;0.246;2022-11-20T03:12:24;100444.02;;;6.86;63.20
64632;BME280;58358;50.936;0.246;2022-11-20T03:14:49;100434.08;;;7.68;61.40
64632;BME280;58358;50.936;0.246;2022-11-20T03:17:16;100429.41;;;7.52;62.07
64632;BME280;58358;50.936;0.246;2022-11-20T03:19:40;100429.26;;;7.68;61.25
64632;BME280;58358;50.936;0.246;2022-11-20T03:22:06;100427.51;;;7.66;61.24
64632;BME280;58358;50.936;0.246;2022-11-20T03:24:31;100422.98;;;7.45;61.24
64632;BME280;58358;50.936;0.246;2022-11-20T03:26:57;100422.82;;;6.74;63.23
64632;BME280;58358;50.936;0.246;2022-11-20T03:29:22;100416.56;;;7.59;62.19
64632;BME280;58358;50.936;0.246;2022-11-20T03:31:48;100413.05;;;7.80;61.13
64632;BME280;58358;50.936;0.246;2022-11-20T03:34:13;100415.95;;;8.41;60.74
64632;BME280;58358;50.936;0.246;2022-11-20T03:36:40;100410.28;;;8.40;59.87
64632;BME280;58358;50.936;0.246;2022-11-20T03:39:04;100401.10;;;8.23;60.04
64632;BME280;58358;50.936;0.246;2022-11-20T03:41:35;100394.94;;;7.51;60.92
64632;BME280;58358;50.936;0.246;2022-11-20T03:43:58;100391.58;;;8.10;59.89
64632;BME280;58358;50.936;0.246;2022-11-20T03:46:22;100387.44;;;8.15;60.04
64632;BME280;58358;50.936;0.246;2022-11-20T03:48:47;100385.15;;;7.99;61.32
64632;BME280;58358;50.936;0.246;2022-11-20T03:51:14;100379.51;;;8.38;60.29
64632;BME280;58358;50.936;0.246;2022-11-20T03:53:39;100375.50;;;7.71;60.99
64632;BME280;58358;50.936;0.246;2022-11-20T03:56:04;100374.96;;;8.54;60.41
64632;BME280;58358;50.936;0.246;2022-11-20T03:58:29;100368.36;;;7.56;61.40
64632;BME280;58358;50.936;0.246;2022-11-20T04:00:55;100369.54;;;8.78;59.94
64632;BME280;58358;50.936;0.246;2022-11-20T04:03:21;100366.46;;;8.78;59.79
64632;BME280;58358;50.936;0.246;2022-11-20T04:05:46;100365.49;;;8.05;61.64
64632;BME280;58358;50.936;0.246;2022-11-20T04:08:12;100363.59;;;8.47;61.10
64632;BME280;58358;50.936;0.246;2022-11-20T04:10:37;100357.12;;;8.14;61.25
64632;BME280;58358;50.936;0.246;2022-11-20T04:13:03;100356.42;;;7.98;61.94
64632;BME280;58358;50.936;0.246;2022-11-20T04:15:28;100355.60;;;7.75;61.58
64632;BME280;58358;50.936;0.246;2022-11-20T04:17:54;100352.87;;;8.50;61.69
64632;BME280;58358;50.936;0.246;2022-11-20T04:20:19;100348.17;;;9.08;59.81
64632;BME280;58358;50.936;0.246;2022-11-20T04:22:44;100349.91;;;7.63;62.43
64632;BME280;58358;50.936;0.246;2022-11-20T04:25:10;100346.97;;;9.13;59.65
64632;BME280;58358;50.936;0.246;2022-11-20T04:27:35;100347.11;;;9.26;59.70
64632;BME280;58358;50.936;0.246;2022-11-20T04:30:01;100341.95;;;9.18;59.86
64632;BME280;58358;50.936;0.246;2022-11-20T04:32:26;100335.03;;;8.85;60.41
64632;BME280;58358;50.936;0.246;2022-11-20T04:34:52;100337.66;;;7.95;62.65
64632;BME280;58358;50.936;0.246;2022-11-20T04:37:17;100336.63;;;8.02;61.90
64632;BME280;58358;50.936;0.246;2022-11-20T04:39:43;100337.37;;;8.11;62.63
64632;BME280;58358;50.936;0.246;2022-11-20T04:42:09;100332.04;;;8.67;61.86
64632;BME280;58358;50.936;0.246;2022-11-20T04:44:35;100329.24;;;8.37;62.19
64632;BME280;58358;50.936;0.246;2022-11-20T04:47:00;100325.71;;;8.52;61.66
64632;BME280;58358;50.936;0.246;2022-11-20T04:49:26;100306.62;;;7.25;64.93
64632;BME280;58358;50.936;0.246;2022-11-20T04:51:53;100306.22;;;7.96;64.19
64632;BME280;58358;50.936;0.246;2022-11-20T04:54:17;100302.33;;;7.94;64.25
64632;BME280;58358;50.936;0.246;2022-11-20T04:56:43;100297.58;;;6.90;68.03
64632;BME280;58358;50.936;0.246;2022-11-20T04:59:09;100301.26;;;7.23;67.64
64632;BME280;58358;50.936;0.246;2022-11-20T05:01:35;100310.26;;;7.83;67.47
64632;BME280;58358;50.936;0.246;2022-11-20T05:04:01;100298.57;;;7.21;69.79
64632;BME280;58358;50.936;0.246;2022-11-20T05:06:27;100297.48;;;7.76;67.29
64632;BME280;58358;50.936;0.246;2022-11-20T05:08:52;100293.96;;;8.22;66.16
64632;BME280;58358;50.936;0.246;2022-11-20T05:11:19;100290.20;;;8.12;66.14
64632;BME280;58358;50.936;0.246;2022-11-20T05:13:44;100291.04;;;8.72;64.80
64632;BME280;58358;50.936;0.246;2022-11-20T05:16:11;100289.11;;;8.66;63.59
64632;BME280;58358;50.936;0.246;2022-11-20T05:18:36;100289.75;;;8.69;62.88
64632;BME280;58358;50.936;0.246;2022-11-20T05:21:00;100288.03;;;8.35;64.16
64632;BME280;58358;50.936;0.246;2022-11-20T05:23:28;100282.70;;;7.98;64.60
64632;BME280;58358;50.936;0.246;2022-11-20T05:25:53;100279.43;;;8.60;63.83
64632;BME280;58358;50.936;0.246;2022-11-20T05:28:18;100280.65;;;9.03;63.67
64632;BME280;58358;50.936;0.246;2022-11-20T05:30:44;100279.04;;;8.34;64.27
64632;BME280;58358;50.936;0.246;2022-11-20T05:33:09;100271.45;;;8.36;63.87
64632;BME280;58358;50.936;0.246;2022-11-20T05:35:35;100261.77;;;8.94;62.41
64632;BME280;58358;50.936;0.246;2022-11-20T05:38:00;100259.08;;;8.70;63.51
64632;BME280;58358;50.936;0.246;2022-11-20T05:40:26;100264.69;;;8.12;64.39
64632;BME280;58358;50.936;0.246;2022-11-20T05:42:52;100257.16;;;8.83;63.05
64632;BME280;58358;50.936;0.246;2022-11-20T05:45:18;100257.15;;;9.21;62.32
64632;BME280;58358;50.936;0.246;2022-11-20T05:47:43;100248.13;;;9.04;62.11
64632;BME280;58358;50.936;0.246;2022-11-20T05:50:09;100244.90;;;9.81;60.80
64632;BME280;58358;50.936;0.246;2022-11-20T05:52:35;100238.75;;;9.50;60.92
64632;BME280;58358;50.936;0.246;2022-11-20T05:55:01;100239.95;;;8.63;63.39
64632;BME280;58358;50.936;0.246;2022-11-20T05:57:27;100237.37;;;9.20;62.68
64632;BME280;58358;50.936;0.246;2022-11-20T05:59:52;100234.42;;;9.21;62.35
64632;BME280;58358;50.936;0.246;2022-11-20T06:02:18;100226.26;;;9.60;61.04
64632;BME280;58358;50.936;0.246;2022-11-20T06:04:44;100221.26;;;9.50;61.35
64632;BME280;58358;50.936;0.246;2022-11-20T06:07:09;100224.73;;;9.66;61.67
64632;BME280;58358;50.936;0.246;2022-11-20T06:09:35;100224.65;;;9.58;61.91
64632;BME280;58358;50.936;0.246;2022-11-20T06:12:01;100223.79;;;9.98;61.36
64632;BME280;58358;50.936;0.246;2022-11-20T06:14:27;100220.38;;;9.56;61.57
64632;BME280;58358;50.936;0.246;2022-11-20T06:16:52;100218.03;;;9.91;60.89
64632;BME280;58358;50.936;0.246;2022-11-20T06:19:18;100215.68;;;9.79;61.48
64632;BME280;58358;50.936;0.246;2022-11-20T06:21:44;100215.36;;;8.20;64.93
64632;BME280;58358;50.936;0.246;2022-11-20T06:24:10;100210.28;;;9.24;62.56
64632;BME280;58358;50.936;0.246;2022-11-20T06:26:37;100206.84;;;9.72;61.46
64632;BME280;58358;50.936;0.246;2022-11-20T06:29:02;100203.30;;;9.56;61.85
64632;BME280;58358;50.936;0.246;2022-11-20T06:31:27;100199.62;;;9.34;62.84
64632;BME280;58358;50.936;0.246;2022-11-20T06:33:53;100194.56;;;9.45;62.42
64632;BME280;58358;50.936;0.246;2022-11-20T06:36:20;100189.36;;;9.50;63.32
64632;BME280;58358;50.936;0.246;2022-11-20T06:38:44;100192.68;;;9.11;63.08
64632;BME280;58358;50.936;0.246;2022-11-20T06:41:13;100188.24;;;8.40;65.21
64632;BME280;58358;50.936;0.246;2022-11-20T06:43:35;100182.53;;;8.45;65.66
64632;BME280;58358;50.936;0.246;2022-11-20T06:46:01;100181.40;;;8.35;66.33
64632;BME280;58358;50.936;0.246;2022-11-20T06:48:28;100180.59;;;8.52;66.33
64632;BME280;58358;50.936;0.246;2022-11-20T06:50:52;100173.23;;;8.66;66.07
64632;BME280;58358;50.936;0.246;2022-11-20T06:53:18;100175.22;;;7.86;70.42
64632;BME280;58358;50.936;0.246;2022-11-20T06:55:44;100167.61;;;7.52;71.30
64632;BME280;58358;50.936;0.246;2022-11-20T06:58:10;100157.96;;;8.12;71.12
64632;BME280;58358;50.936;0.246;2022-11-20T07:00:35;100161.18;;;6.87;79.54
64632;BME280;58358;50.936;0.246;2022-11-20T07:03:03;100159.67;;;6.84;81.70
64632;BME280;58358;50.936;0.246;2022-11-20T07:05:27;100157.83;;;7.09;78.87
64632;BME280;58358;50.936;0.246;2022-11-20T07:07:57;100152.72;;;7.42;82.10
64632;BME280;58358;50.936;0.246;2022-11-20T07:10:19;100142.89;;;7.41;83.48
64632;BME280;58358;50.936;0.246;2022-11-20T07:12:49;100137.87;;;6.84;86.75
64632;BME280;58358;50.936;0.246;2022-11-20T07:15:10;100129.32;;;7.53;85.36
64632;BME280;58358;50.936;0.246;2022-11-20T07:17:36;100130.33;;;8.10;84.02
64632;BME280;58358;50.936;0.246;2022-11-20T07:20:02;100124.63;;;8.00;82.44
64632;BME280;58358;50.936;0.246;2022-11-20T07:22:28;100112.10;;;7.88;81.85
64632;BME280;58358;50.936;0.246;2022-11-20T07:24:53;100108.05;;;8.57;81.39
64632;BME280;58358;50.936;0.246;2022-11-20T07:27:19;100106.29;;;8.59;81.48
64632;BME280;58358;50.936;0.246;2022-11-20T07:29:44;100102.50;;;9.00;80.11
64632;BME280;58358;50.936;0.246;2022-11-20T07:32:10;100099.08;;;8.64;81.59
64632;BME280;58358;50.936;0.246;2022-11-20T07:34:35;100098.07;;;7.96;82.97
64632;BME280;58358;50.936;0.246;2022-11-20T07:37:01;100087.91;;;8.46;82.98
64632;BME280;58358;50.936;0.246;2022-11-20T07:39:27;100079.07;;;8.71;82.15
64632;BME280;58358;50.936;0.246;2022-11-20T07:41:51;100074.49;;;9.08;79.90
64632;BME280;58358;50.936;0.246;2022-11-20T07:44:17;100065.04;;;8.16;83.35
64632;BME280;58358;50.936;0.246;2022-11-20T07:46:43;100061.65;;;8.76;82.45
64632;BME280;58358;50.936;0.246;2022-11-20T07:49:08;100056.38;;;8.02;85.61
64632;BME280;58358;50.936;0.246;2022-11-20T07:51:34;100045.49;;;7.58;87.83
64632;BME280;58358;50.936;0.246;2022-11-20T07:54:00;100040.66;;;8.02;87.49
64632;BME280;58358;50.936;0.246;2022-11-20T07:56:26;100039.54;;;8.44;85.11
64632;BME280;58358;50.936;0.246;2022-11-20T07:58:51;100040.37;;;7.80;88.71
64632;BME280;58358;50.936;0.246;2022-11-20T08:01:16;100039.80;;;8.01;88.48
64632;BME280;58358;50.936;0.246;2022-11-20T08:03:42;100036.05;;;7.76;88.05
64632;BME280;58358;50.936;0.246;2022-11-20T08:06:08;100029.23;;;8.28;88.45
64632;BME280;58358;50.936;0.246;2022-11-20T08:08:33;100021.04;;;7.88;88.23
64632;BME280;58358;50.936;0.246;2022-11-20T08:10:59;100018.22;;;8.98;84.58
64632;BME280;58358;50.936;0.246;2022-11-20T08:13:24;100018.34;;;8.13;88.11
64632;BME280;58358;50.936;0.246;2022-11-20T08:15:50;100011.87;;;8.32;88.81
64632;BME280;58358;50.936;0.246;2022-11-20T08:18:15;100017.05;;;7.30;92.26
64632;BME280;58358;50.936;0.246;2022-11-20T08:20:41;100005.15;;;7.67;91.70
64632;BME280;58358;50.936;0.246;2022-11-20T08:23:07;100001.78;;;8.43;89.82
64632;BME280;58358;50.936;0.246;2022-11-20T08:25:34;99999.70;;;8.32;89.32
64632;BME280;58358;50.936;0.246;2022-11-20T08:27:58;99997.76;;;8.47;89.26
64632;BME280;58358;50.936;0.246;2022-11-20T08:30:24;99990.56;;;8.75;86.51
64632;BME280;58358;50.936;0.246;2022-11-20T08:32:49;99990.35;;;8.23;86.44
64632;BME280;58358;50.936;0.246;2022-11-20T08:35:15;99993.97;;;8.92;84.69
64632;BME280;58358;50.936;0.246;2022-11-20T08:37:40;99989.98;;;10.14;81.35
64632;BME280;58358;50.936;0.246;2022-11-20T08:40:07;99992.51;;;9.20;82.38
64632;BME280;58358;50.936;0.246;2022-11-20T08:42:32;100002.45;;;9.46;82.89
64632;BME280;58358;50.936;0.246;2022-11-20T08:44:58;99996.37;;;10.66;79.05
64632;BME280;58358;50.936;0.246;2022-11-20T08:47:23;100014.44;;;9.71;81.78
64632;BME280;58358;50.936;0.246;2022-11-20T08:49:49;100041.37;;;6.32;95.51
64632;BME280;58358;50.936;0.246;2022-11-20T08:52:14;100027.56;;;6.25;96.64
64632;BME280;58358;50.936;0.246;2022-11-20T08:54:40;100047.28;;;6.73;96.46
64632;BME280;58358;50.936;0.246;2022-11-20T08:57:06;100059.48;;;5.78;96.47
64632;BME280;58358;50.936;0.246;2022-11-20T08:59:32;100068.74;;;5.73;97.69
64632;BME280;58358;50.936;0.246;2022-11-20T09:01:57;100083.84;;;6.03;98.10
64632;BME280;58358;50.936;0.246;2022-11-20T09:04:23;100087.58;;;6.37;96.47
64632;BME280;58358;50.936;0.246;2022-11-20T09:06:49;100096.43;;;6.19;95.35
64632;BME280;58358;50.936;0.246;2022-11-20T09:09:15;100097.93;;;6.33;94.69
64632;BME280;58358;50.936;0.246;2022-11-20T09:11:40;100106.85;;;5.72;96.02
64632;BME280;58358;50.936;0.246;2022-11-20T09:14:06;100112.80;;;5.85;95.93
64632;BME280;58358;50.936;0.246;2022-11-20T09:16:32;100126.20;;;5.78;94.93
64632;BME280;58358;50.936;0.246;2022-11-20T09:18:58;100127.76;;;5.96;96.51
64632;BME280;58358;50.936;0.246;2022-11-20T09:21:23;100141.57;;;5.65;96.83
64632;BME280;58358;50.936;0.246;2022-11-20T09:23:49;100142.57;;;5.41;97.50
64632;BME280;58358;50.936;0.246;2022-11-20T09:26:15;100146.90;;;5.68;96.76
64632;BME280;58358;50.936;0.246;2022-11-20T09:28:41;100157.29;;;5.83;95.19
64632;BME280;58358;50.936;0.246;2022-11-20T09:31:07;100152.62;;;5.62;95.93
64632;BME280;58358;50.936;0.246;2022-11-20T09:33:32;100154.45;;;5.98;94.38
64632;BME280;58358;50.936;0.246;2022-11-20T09:35:58;100153.19;;;6.32;93.69
64632;BME280;58358;50.936;0.246;2022-11-20T09:38:24;100161.78;;;6.02;93.07
64632;BME280;58358;50.936;0.246;2022-11-20T09:40:56;100153.43;;;6.71;91.63
64632;BME280;58358;50.936;0.246;2022-11-20T09:43:20;100164.88;;;6.61;90.21
64632;BME280;58358;50.936;0.246;2022-11-20T09:45:52;100169.64;;;5.81;91.75
64632;BME280;58358;50.936;0.246;2022-11-20T09:48:20;100176.05;;;6.16;93.61
64632;BME280;58358;50.936;0.246;2022-11-20T09:50:38;100177.32;;;5.72;93.45
64632;BME280;58358;50.936;0.246;2022-11-20T09:53:12;100172.03;;;6.34;90.53
64632;BME280;58358;50.936;0.246;2022-11-20T09:55:24;100177.69;;;6.23;90.51
64632;BME280;58358;50.936;0.246;2022-11-20T09:57:51;100174.81;;;6.68;88.77
64632;BME280;58358;50.936;0.246;2022-11-20T10:00:16;100192.58;;;6.00;89.67
64632;BME280;58358;50.936;0.246;2022-11-20T10:02:46;100188.01;;;6.81;89.92
64632;BME280;58358;50.936;0.246;2022-11-20T10:05:13;100197.60;;;6.32;89.23
64632;BME280;58358;50.936;0.246;2022-11-20T10:07:39;100194.93;;;5.99;90.86
64632;BME280;58358;50.936;0.246;2022-11-20T10:09:59;100192.47;;;6.19;91.00
64632;BME280;58358;50.936;0.246;2022-11-20T10:12:31;100196.12;;;5.67;90.11
64632;BME280;58358;50.936;0.246;2022-11-20T10:15:03;100188.60;;;6.23;89.35
64632;BME280;58358;50.936;0.246;2022-11-20T10:17:24;100190.25;;;6.14;88.93
64632;BME280;58358;50.936;0.246;2022-11-20T10:19:52;100184.40;;;6.37;87.84
64632;BME280;58358;50.936;0.246;2022-11-20T10:22:14;100175.82;;;6.57;86.05
64632;BME280;58358;50.936;0.246;2022-11-20T10:24:44;100176.70;;;7.24;83.40
64632;BME280;58358;50.936;0.246;2022-11-20T10:27:05;100173.31;;;6.97;83.69
64632;BME280;58358;50.936;0.246;2022-11-20T10:29:32;100175.18;;;7.53;82.08
64632;BME280;58358;50.936;0.246;2022-11-20T10:31:54;100170.18;;;6.21;86.80
64632;BME280;58358;50.936;0.246;2022-11-20T10:34:23;100160.97;;;6.44;85.82
64632;BME280;58358;50.936;0.246;2022-11-20T10:36:45;100168.04;;;6.24;86.95
64632;BME280;58358;50.936;0.246;2022-11-20T10:39:16;100170.18;;;6.76;85.09
64632;BME280;58358;50.936;0.246;2022-11-20T10:41:40;100170.87;;;6.51;85.33
64632;BME280;58358;50.936;0.246;2022-11-20T10:44:05;100172.83;;;7.51;82.58
64632;BME280;58358;50.936;0.246;2022-11-20T10:46:25;100178.61;;;6.85;83.69
64632;BME280;58358;50.936;0.246;2022-11-20T10:48:51;100182.88;;;7.31;83.56
64632;BME280;58358;50.936;0.246;2022-11-20T10:51:27;100181.89;;;6.95;84.28
64632;BME280;58358;50.936;0.246;2022-11-20T10:53:56;100190.15;;;6.63;86.75
64632;BME280;58358;50.936;0.246;2022-11-20T10:56:15;100178.70;;;6.82;85.41
64632;BME280;58358;50.936;0.246;2022-11-20T10:58:40;100170.02;;;7.28;82.51
64632;BME280;58358;50.936;0.246;2022-11-20T11:01:04;100169.76;;;5.89;86.28
64632;BME280;58358;50.936;0.246;2022-11-20T11:03:27;100178.01;;;6.98;83.36
64632;BME280;58358;50.936;0.246;2022-11-20T11:05:56;100188.66;;;7.74;80.15
64632;BME280;58358;50.936;0.246;2022-11-20T11:08:19;100185.35;;;6.83;81.89
64632;BME280;58358;50.936;0.246;2022-11-20T11:10:47;100180.65;;;7.04;82.81
64632;BME280;58358;50.936;0.246;2022-11-20T11:13:19;100189.11;;;6.25;85.44
64632;BME280;58358;50.936;0.246;2022-11-20T11:15:39;100189.70;;;5.89;86.56
64632;BME280;58358;50.936;0.246;2022-11-20T11:17:59;100185.99;;;6.10;85.06
64632;BME280;58358;50.936;0.246;2022-11-20T11:20:25;100188.25;;;6.84;83.54
64632;BME280;58358;50.936;0.246;2022-11-20T11:22:51;100195.02;;;7.22;80.82
64632;BME280;58358;50.936;0.246;2022-11-20T11:25:27;100200.59;;;7.33;79.77
64632;BME280;58358;50.936;0.246;2022-11-20T11:27:46;100203.80;;;6.45;82.05
64632;BME280;58358;50.936;0.246;2022-11-20T11:30:14;100199.97;;;6.30;83.78
64632;BME280;58358;50.936;0.246;2022-11-20T11:32:32;100202.86;;;6.47;82.87
64632;BME280;58358;50.936;0.246;2022-11-20T11:34:59;100195.19;;;6.72;81.52
64632;BME280;58358;50.936;0.246;2022-11-20T11:37:25;100191.60;;;6.77;82.09
64632;BME280;58358;50.936;0.246;2022-11-20T11:39:49;100197.89;;;6.99;80.47
64632;BME280;58358;50.936;0.246;2022-11-20T11:42:18;100190.26;;;6.59;81.73
64632;BME280;58358;50.936;0.246;2022-11-20T11:44:46;100196.09;;;6.20;82.68
64632;BME280;58358;50.936;0.246;2022-11-20T11:47:11;100192.97;;;6.35;83.59
64632;BME280;58358;50.936;0.246;2022-11-20T11:49:32;100197.87;;;7.26;79.89
64632;BME280;58358;50.936;0.246;2022-11-20T11:52:03;100196.55;;;7.21;78.97
64632;BME280;58358;50.936;0.246;2022-11-20T11:54:25;100196.89;;;7.02;79.63
64632;BME280;58358;50.936;0.246;2022-11-20T11:56:48;100197.40;;;7.41;78.83
64632;BME280;58358;50.936;0.246;2022-11-20T11:59:22;100194.89;;;6.86;81.24
64632;BME280;58358;50.936;0.246;2022-11-20T12:01:45;100199.01;;;7.01;80.19
64632;BME280;58358;50.936;0.246;2022-11-20T12:04:13;100197.73;;;7.41;78.46
64632;BME280;58358;50.936;0.246;2022-11-20T12:06:31;100206.03;;;7.52;77.19
64632;BME280;58358;50.936;0.246;2022-11-20T12:09:02;100195.79;;;7.10;77.94
64632;BME280;58358;50.936;0.246;2022-11-20T12:11:30;100205.06;;;7.44;76.09
64632;BME280;58358;50.936;0.246;2022-11-20T12:13:53;100206.71;;;7.78;76.54
64632;BME280;58358;50.936;0.246;2022-11-20T12:16:14;100207.02;;;8.55;74.48
64632;BME280;58358;50.936;0.246;2022-11-20T12:18:39;100209.80;;;8.09;74.64
64632;BME280;58358;50.936;0.246;2022-11-20T12:21:12;100210.34;;;7.42;75.42
64632;BME280;58358;50.936;0.246;2022-11-20T12:23:35;100198.40;;;6.17;79.21
64632;BME280;58358;50.936;0.246;2022-11-20T12:25:58;100196.78;;;8.03;74.74
64632;BME280;58358;50.936;0.246;2022-11-20T12:28:34;100201.65;;;7.48;75.24
64632;BME280;58358;50.936;0.246;2022-11-20T12:30:53;100206.56;;;7.45;75.25
64632;BME280;58358;50.936;0.246;2022-11-20T12:33:23;100203.46;;;7.70;76.19
64632;BME280;58358;50.936;0.246;2022-11-20T12:35:47;100201.63;;;8.19;73.29
64632;BME280;58358;50.936;0.246;2022-11-20T12:40:34;100197.08;;;6.65;75.14
64632;BME280;58358;50.936;0.246;2022-11-20T12:43:06;100201.49;;;6.74;77.32
64632;BME280;58358;50.936;0.246;2022-11-20T12:45:30;100193.82;;;7.27;75.15
64632;BME280;58358;50.936;0.246;2022-11-20T12:47:56;100199.55;;;6.73;76.37
64632;BME280;58358;50.936;0.246;2022-11-20T12:50:19;100185.68;;;7.35;75.37
64632;BME280;58358;50.936;0.246;2022-11-20T12:52:43;100183.62;;;7.55;75.64
64632;BME280;58358;50.936;0.246;2022-11-20T12:55:12;100183.54;;;7.47;74.63